createdAt,value
2022-12-01T00:00:07.474Z,101841.22
2022-12-01T00:02:09.296Z,101844.63
2022-12-01T00:04:11.098Z,101850.06
2022-12-01T00:06:17.323Z,101848.31
2022-12-01T00:08:19.280Z,101847.38
2022-12-01T00:10:21.184Z,101845.63
2022-12-01T00:12:23.037Z,101850.16
2022-12-01T00:14:25.098Z,101845.63
2022-12-01T00:16:26.920Z,101852.63
2022-12-01T00:18:28.915Z,101844.63
2022-12-01T00:20:30.708Z,101844.63
2022-12-01T00:22:32.393Z,101850.84
2022-12-01T00:24:34.047Z,101852.69
2022-12-01T00:26:36.889Z,101852.63
2022-12-01T00:28:38.845Z,101840.09
2022-12-01T00:30:40.651Z,101853.56
2022-12-01T00:32:42.367Z,101845.47
2022-12-01T00:34:44.304Z,101850.84
2022-12-01T00:36:46.007Z,101840.09
2022-12-01T00:38:47.805Z,101840.09
2022-12-01T00:40:49.593Z,101844.56
2022-12-01T00:42:51.427Z,101848.97
2022-12-01T00:44:53.392Z,101839.97
2022-12-01T00:46:55.076Z,101845.34
2022-12-01T00:48:56.931Z,101837.28
2022-12-01T00:50:58.705Z,101839.97
2022-12-01T00:53:00.513Z,101838.19
2022-12-01T00:55:02.303Z,101837.34
2022-12-01T00:57:04.633Z,101833.78
2022-12-01T00:59:06.441Z,101832.03
2022-12-01T01:01:08.229Z,101826.66
2022-12-01T01:03:10.676Z,101833.84
2022-12-01T01:05:12.448Z,101832.03
2022-12-01T01:07:14.216Z,101831.09
2022-12-01T01:09:16.248Z,101826.56
2022-12-01T01:11:18.036Z,101835.47
2022-12-01T01:13:19.717Z,101829.22
2022-12-01T01:15:21.599Z,101831.91
2022-12-01T01:17:23.325Z,101825.72
2022-12-01T01:19:25.147Z,101833.00
2022-12-01T01:21:27.051Z,101839.22
2022-12-01T01:23:28.855Z,101846.50
2022-12-01T01:25:32.162Z,101836.75
2022-12-01T01:27:34.822Z,101840.41
2022-12-01T01:29:37.088Z,101843.09
2022-12-01T01:31:38.995Z,101844.03
2022-12-01T01:33:40.692Z,101833.28
2022-12-01T01:35:42.425Z,101833.28
2022-12-01T01:37:44.186Z,101831.47
2022-12-01T01:39:46.191Z,101829.66
2022-12-01T01:41:48.089Z,101826.00
2022-12-01T01:43:50.606Z,101827.75
2022-12-01T01:45:52.337Z,101823.25
2022-12-01T01:47:54.278Z,101825.06
2022-12-01T01:49:56.778Z,101817.78
2022-12-01T01:51:58.587Z,101822.38
2022-12-01T01:54:04.280Z,101817.13
2022-12-01T01:56:06.235Z,101823.47
2022-12-01T01:58:09.022Z,101831.47
2022-12-01T02:00:13.300Z,101823.47
2022-12-01T02:02:15.181Z,101832.34
2022-12-01T02:04:16.884Z,101828.78
2022-12-01T02:06:18.621Z,101835.16
2022-12-01T02:08:20.463Z,101827.19
2022-12-01T02:10:22.674Z,101836.94
2022-12-01T02:12:47.154Z,101826.31
2022-12-01T02:14:57.477Z,101835.31
2022-12-01T02:17:04.596Z,101834.41
2022-12-01T02:19:29.372Z,101831.78
2022-12-01T02:22:21.674Z,101833.44
2022-12-01T02:24:26.173Z,101832.56
2022-12-01T02:26:52.110Z,101830.69
2022-12-01T02:29:19.910Z,101830.59
2022-12-01T02:31:47.656Z,101834.31
2022-12-01T02:33:57.891Z,101833.72
2022-12-01T02:36:33.445Z,101832.16
2022-12-01T02:38:38.968Z,101831.25
2022-12-01T02:41:05.085Z,101833.88
2022-12-01T02:43:44.290Z,101831.84
2022-12-01T02:46:15.346Z,101835.47
2022-12-01T02:48:34.064Z,101824.78
2022-12-01T02:50:35.869Z,101824.88
2022-12-01T02:52:38.689Z,101823.75
2022-12-01T02:54:40.421Z,101822.84
2022-12-01T02:56:44.382Z,101825.59
2022-12-01T02:58:46.151Z,101825.59
2022-12-01T03:01:08.003Z,101824.72
2022-12-01T03:03:21.459Z,101816.56
2022-12-01T03:06:17.045Z,101817.47
2022-12-01T03:08:52.771Z,101816.66
2022-12-01T03:10:55.533Z,101822.03
2022-12-01T03:13:23.385Z,101824.72
2022-12-01T03:15:34.040Z,101815.84
2022-12-01T03:17:41.464Z,101817.59
2022-12-01T03:19:53.911Z,101817.59
2022-12-01T03:22:01.985Z,101819.41
2022-12-01T03:24:22.709Z,101816.81
2022-12-01T03:26:24.757Z,101813.16
2022-12-01T03:28:30.718Z,101814.91
2022-12-01T03:30:33.878Z,101809.63
2022-12-01T03:32:39.035Z,101811.34
2022-12-01T03:35:02.068Z,101817.59
2022-12-01T03:37:16.560Z,101811.34
2022-12-01T03:39:25.869Z,101808.75
2022-12-01T03:41:30.253Z,101808.75
2022-12-01T03:43:32.657Z,101814.13
2022-12-01T03:45:35.513Z,101813.09
2022-12-01T03:47:37.278Z,101813.50
2022-12-01T03:49:39.253Z,101812.75
2022-12-01T03:51:46.074Z,101809.16
2022-12-01T03:53:55.725Z,101811.19
2022-12-01T03:56:00.994Z,101810.81
2022-12-01T03:58:13.811Z,101816.13
2022-12-01T04:00:15.774Z,101814.13
2022-12-01T04:02:17.725Z,101818.16
2022-12-01T04:04:19.661Z,101819.72
2022-12-01T04:06:21.362Z,101808.75
2022-12-01T04:08:23.131Z,101807.50
2022-12-01T04:10:24.844Z,101802.03
2022-12-01T04:12:26.626Z,101808.19
2022-12-01T04:14:28.798Z,101806.31
2022-12-01T04:16:30.766Z,101805.34
2022-12-01T04:18:33.548Z,101817.78
2022-12-01T04:20:35.318Z,101809.56
2022-12-01T04:22:38.080Z,101811.28
2022-12-01T04:24:39.885Z,101809.63
2022-12-01T04:26:42.672Z,101814.84
2022-12-01T04:28:44.618Z,101808.59
2022-12-01T04:30:46.343Z,101808.56
2022-12-01T04:32:48.144Z,101807.81
2022-12-01T04:34:49.935Z,101806.78
2022-12-01T04:36:51.895Z,101807.81
2022-12-01T04:38:53.805Z,101819.47
2022-12-01T04:40:55.642Z,101819.53
2022-12-01T04:42:57.509Z,101813.34
2022-12-01T04:44:59.241Z,101814.38
2022-12-01T04:47:01.226Z,101806.38
2022-12-01T04:49:03.445Z,101810.81
2022-12-01T04:51:06.023Z,101811.75
2022-12-01T04:53:07.675Z,101816.34
2022-12-01T04:55:09.861Z,101815.41
2022-12-01T04:57:11.494Z,101812.78
2022-12-01T04:59:13.148Z,101812.78
2022-12-01T05:01:15.775Z,101817.28
2022-12-01T05:03:17.513Z,101815.56
2022-12-01T05:05:19.139Z,101814.66
2022-12-01T05:07:20.806Z,101815.56
2022-12-01T05:09:22.487Z,101827.25
2022-12-01T05:11:26.418Z,101829.09
2022-12-01T05:13:28.059Z,101827.31
2022-12-01T05:15:29.675Z,101832.69
2022-12-01T05:17:36.811Z,101837.22
2022-12-01T05:19:38.790Z,101828.34
2022-12-01T05:21:40.962Z,101832.78
2022-12-01T05:23:42.592Z,101833.72
2022-12-01T05:25:44.224Z,101828.34
2022-12-01T05:27:45.853Z,101829.31
2022-12-01T05:29:47.884Z,101835.66
2022-12-01T05:31:49.813Z,101827.56
2022-12-01T05:33:51.459Z,101833.81
2022-12-01T05:35:53.161Z,101838.34
2022-12-01T05:37:54.800Z,101832.97
2022-12-01T05:39:56.439Z,101833.88
2022-12-01T05:41:58.071Z,101836.56
2022-12-01T05:43:59.704Z,101836.56
2022-12-01T05:46:01.425Z,101842.91
2022-12-01T05:48:03.187Z,101844.69
2022-12-01T05:50:06.117Z,101843.94
2022-12-01T05:52:08.136Z,101851.91
2022-12-01T05:54:09.857Z,101852.88
2022-12-01T05:56:11.477Z,101852.00
2022-12-01T05:58:13.141Z,101853.78
2022-12-01T06:00:15.180Z,101853.78
2022-12-01T06:02:16.834Z,101859.19
2022-12-01T06:04:18.555Z,101864.56
2022-12-01T06:06:20.405Z,101860.13
2022-12-01T06:08:22.036Z,101858.31
2022-12-01T06:10:23.683Z,101866.38
2022-12-01T06:12:25.301Z,101861.00
2022-12-01T06:14:26.930Z,101862.81
2022-12-01T06:16:28.653Z,101860.13
2022-12-01T06:18:31.890Z,101861.06
2022-12-01T06:20:33.538Z,101866.44
2022-12-01T06:22:35.164Z,101862.81
2022-12-01T06:24:36.899Z,101869.13
2022-12-01T06:26:38.538Z,101870.09
2022-12-01T06:28:40.182Z,101876.34
2022-12-01T06:30:41.856Z,101874.59
2022-12-01T06:32:43.482Z,101877.28
2022-12-01T06:34:45.117Z,101880.84
2022-12-01T06:36:46.745Z,101870.16
2022-12-01T06:38:48.365Z,101862.97
2022-12-01T06:40:49.976Z,101868.34
2022-12-01T06:42:51.614Z,101870.09
2022-12-01T06:44:53.259Z,101873.75
2022-12-01T06:46:54.929Z,101872.84
2022-12-01T06:48:56.678Z,101868.34
2022-12-01T06:50:59.087Z,101871.06
2022-12-01T06:53:00.764Z,101869.22
2022-12-01T06:55:02.893Z,101866.59
2022-12-01T06:57:04.833Z,101869.22
2022-12-01T06:59:06.788Z,101862.09
2022-12-01T07:01:10.105Z,101862.97
2022-12-01T07:03:11.785Z,101862.97
2022-12-01T07:05:13.420Z,101862.09
2022-12-01T07:07:15.061Z,101871.91
2022-12-01T07:09:16.686Z,101860.28
2022-12-01T07:11:18.457Z,101862.97
2022-12-01T07:13:20.088Z,101857.59
2022-12-01T07:15:21.715Z,101856.72
2022-12-01T07:17:23.502Z,101862.97
2022-12-01T07:19:25.141Z,101860.50
2022-12-01T07:21:26.778Z,101858.91
2022-12-01T07:23:28.593Z,101860.84
2022-12-01T07:25:30.230Z,101859.97
2022-12-01T07:27:31.977Z,101856.59
2022-12-01T07:29:33.687Z,101865.56
2022-12-01T07:31:35.434Z,101868.28
2022-12-01T07:33:37.107Z,101867.34
2022-12-01T07:35:38.763Z,101864.66
2022-12-01T07:37:40.409Z,101866.44
2022-12-01T07:39:42.086Z,101870.03
2022-12-01T07:41:43.726Z,101870.81
2022-12-01T07:43:45.385Z,101867.03
2022-12-01T07:45:47.075Z,101868.63
2022-12-01T07:47:52.195Z,101864.88
2022-12-01T07:49:53.818Z,101866.59
2022-12-01T07:51:55.458Z,101861.06
2022-12-01T07:54:01.164Z,101866.44
2022-12-01T07:56:07.015Z,101861.00
2022-12-01T07:58:09.940Z,101864.56
2022-12-01T08:00:12.272Z,101869.06
2022-12-01T08:02:14.029Z,101864.72
2022-12-01T08:04:15.763Z,101865.88
2022-12-01T08:06:17.760Z,101871.53
2022-12-01T08:08:19.463Z,101866.38
2022-12-01T08:10:21.203Z,101865.56
2022-12-01T08:12:22.886Z,101865.66
2022-12-01T08:14:24.655Z,101862.09
2022-12-01T08:16:26.371Z,101863.97
2022-12-01T08:18:28.132Z,101866.75
2022-12-01T08:20:29.821Z,101874.72
2022-12-01T08:22:31.537Z,101863.25
2022-12-01T08:24:33.231Z,101866.75
2022-12-01T08:26:34.848Z,101864.13
2022-12-01T08:28:36.495Z,101867.63
2022-12-01T08:30:38.134Z,101859.50
2022-12-01T08:32:39.769Z,101861.28
2022-12-01T08:34:41.849Z,101861.28
2022-12-01T08:36:43.901Z,101860.50
2022-12-01T08:38:46.122Z,101867.78
2022-12-01T08:42:49.179Z,101870.56
2022-12-01T08:44:50.854Z,101864.28
2022-12-01T08:46:52.568Z,101858.91
2022-12-01T08:48:54.765Z,101860.63
2022-12-01T08:51:09.401Z,101868.69
2022-12-01T08:53:11.025Z,101864.28
2022-12-01T08:55:12.661Z,101862.50
2022-12-01T08:57:14.288Z,101858.09
2022-12-01T08:59:16.015Z,101859.50
2022-12-01T09:01:18.208Z,101861.06
2022-12-01T09:03:19.923Z,101858.31
2022-12-01T09:05:21.581Z,101859.28
2022-12-01T09:07:26.540Z,101856.88
2022-12-01T09:09:28.857Z,101851.63
2022-12-01T09:11:30.491Z,101854.31
2022-12-01T09:13:33.224Z,101846.38
2022-12-01T09:15:34.872Z,101841.00
2022-12-01T09:17:36.510Z,101841.00
2022-12-01T09:19:38.127Z,101841.09
2022-12-01T09:21:39.855Z,101845.53
2022-12-01T09:23:41.476Z,101839.28
2022-12-01T09:25:43.232Z,101841.16
2022-12-01T09:27:45.031Z,101841.16
2022-12-01T09:29:47.063Z,101830.41
2022-12-01T09:31:48.917Z,101830.41
2022-12-01T09:33:57.797Z,101831.28
2022-12-01T09:36:00.303Z,101831.28
2022-12-01T09:38:01.996Z,101825.03
2022-12-01T09:40:03.950Z,101828.69
2022-12-01T09:42:13.836Z,101831.38
2022-12-01T09:44:27.549Z,101834.06
2022-12-01T09:46:32.885Z,101829.59
2022-12-01T09:48:43.673Z,101800.03
2022-12-01T09:50:45.350Z,101797.88
2022-12-01T09:52:48.190Z,101797.34
2022-12-01T09:54:49.936Z,101809.41
2022-12-01T09:56:52.644Z,101807.44
2022-12-01T09:58:59.470Z,101801.03
2022-12-01T10:01:01.276Z,101807.06
2022-12-01T10:03:08.915Z,101805.25
2022-12-01T10:05:22.481Z,101800.75
2022-12-01T10:07:24.844Z,101805.09
2022-12-01T10:09:41.499Z,101801.44
2022-12-01T10:11:43.953Z,101802.34
2022-12-01T10:13:45.654Z,101803.22
2022-12-01T10:15:59.428Z,101804.06
2022-12-01T10:18:24.308Z,101803.22
2022-12-01T10:20:30.895Z,101802.41
2022-12-01T10:22:55.804Z,101812.06
2022-12-01T10:25:10.683Z,101801.16
2022-12-01T10:27:25.750Z,101807.19
2022-12-01T10:29:47.791Z,101802.44
2022-12-01T10:31:53.875Z,101804.06
2022-12-01T10:34:08.195Z,101828.13
2022-12-01T10:36:10.192Z,101803.75
2022-12-01T10:38:15.296Z,101801.88
2022-12-01T10:40:17.444Z,101800.75
2022-12-01T10:42:41.290Z,101798.00
2022-12-01T10:44:43.021Z,101803.38
2022-12-01T10:46:50.596Z,101797.03
2022-12-01T10:49:08.190Z,101805.03
2022-12-01T10:51:28.831Z,101804.06
2022-12-01T10:53:49.080Z,101805.91
2022-12-01T10:55:52.064Z,101807.50
2022-12-01T10:58:06.145Z,101798.44
2022-12-01T11:00:57.543Z,101788.59
2022-12-01T11:22:31.315Z,101887.03
2022-12-01T11:24:42.384Z,101885.22
2022-12-01T11:26:44.175Z,101892.31
2022-12-01T11:29:02.880Z,101901.44
2022-12-01T11:31:13.653Z,101902.81
2022-12-01T11:33:15.391Z,101904.25
2022-12-01T11:35:19.495Z,101909.34
2022-12-01T11:37:22.515Z,101910.19
2022-12-01T11:39:36.501Z,101908.38
2022-12-01T11:41:40.191Z,101919.38
2022-12-01T11:43:46.768Z,101916.72
2022-12-01T11:45:52.503Z,101927.53
2022-12-01T11:48:03.377Z,101927.25
2022-12-01T11:50:24.178Z,101928.41
2022-12-01T11:52:36.916Z,101925.56
2022-12-01T11:54:38.868Z,101920.91
2022-12-01T11:56:40.705Z,101927.44
2022-12-01T11:58:46.259Z,101930.13
2022-12-01T12:00:52.091Z,101928.03
2022-12-01T12:02:56.767Z,101924.06
2022-12-01T12:05:30.959Z,101933.56
2022-12-01T12:08:04.383Z,101931.06
2022-12-01T12:10:43.458Z,101929.56
2022-12-01T12:13:03.344Z,101928.81
2022-12-01T12:15:16.863Z,101929.88
2022-12-01T12:17:41.264Z,101929.16
2022-12-01T12:20:16.236Z,101931.19
2022-12-01T12:22:33.858Z,101929.22
2022-12-01T12:25:20.474Z,101929.47
2022-12-01T12:27:25.131Z,101937.44
2022-12-01T12:29:51.642Z,101932.31
2022-12-01T12:32:03.443Z,101926.66
2022-12-01T12:34:13.991Z,101928.88
2022-12-01T12:36:27.687Z,101928.78
2022-12-01T12:39:01.690Z,101926.72
2022-12-01T12:41:25.106Z,101932.31
2022-12-01T12:43:51.586Z,101933.88
2022-12-01T12:45:56.306Z,101932.75
2022-12-01T12:48:07.450Z,101941.47
2022-12-01T12:50:15.268Z,101945.72
2022-12-01T12:52:26.690Z,101947.06
2022-12-01T12:54:41.891Z,101954.09
2022-12-01T12:56:46.738Z,101946.97
2022-12-01T12:58:58.508Z,101943.72
2022-12-01T13:05:09.389Z,101937.69
2022-12-01T13:10:48.895Z,101930.88
2022-12-01T13:15:51.517Z,101925.19
2022-12-01T13:20:54.454Z,101924.38
2022-12-01T13:25:57.559Z,101929.75
2022-12-01T13:31:15.400Z,101929.75
2022-12-01T13:36:46.780Z,101924.69
2022-12-01T13:41:39.099Z,101926.81
2022-12-01T13:46:44.107Z,101940.03
2022-12-01T13:52:22.860Z,101944.50
2022-12-01T13:57:26.957Z,101942.91
2022-12-01T14:02:30.559Z,101935.56
2022-12-01T14:07:34.911Z,101940.56
2022-12-01T14:12:36.828Z,101942.59
2022-12-01T14:17:38.700Z,101936.69
2022-12-01T14:22:42.395Z,101929.75
2022-12-01T14:27:44.439Z,101923.50
2022-12-01T14:32:46.325Z,101918.03
2022-12-01T14:37:48.838Z,101910.88
2022-12-01T14:42:51.295Z,101901.63
2022-12-01T14:47:57.802Z,101902.03
2022-12-01T14:53:07.294Z,101900.66
2022-12-01T14:58:15.354Z,101908.00
2022-12-01T15:03:19.664Z,101918.13
2022-12-01T15:08:42.020Z,101911.63
2022-12-01T15:13:48.777Z,101905.59
2022-12-01T15:18:50.580Z,101913.94
2022-12-01T15:24:03.394Z,101910.16
2022-12-01T15:29:18.414Z,101904.09
2022-12-01T15:34:27.139Z,101901.66
2022-12-01T15:39:39.516Z,101908.09
2022-12-01T15:44:41.385Z,101901.63
2022-12-01T15:49:48.719Z,101913.59
2022-12-01T15:54:50.841Z,101898.97
2022-12-01T15:59:54.258Z,101892.38
2022-12-01T16:05:10.085Z,101913.91
2022-12-01T16:10:41.181Z,101904.75
2022-12-01T16:15:43.537Z,101905.94
2022-12-01T16:20:45.536Z,101896.41
2022-12-01T16:25:47.479Z,101902.84
2022-12-01T16:30:49.593Z,101910.00
2022-12-01T16:35:51.638Z,101907.56
2022-12-01T16:40:55.353Z,101901.59
2022-12-01T16:46:02.058Z,101897.50
2022-12-01T16:51:05.272Z,101894.59
2022-12-01T16:56:09.419Z,101879.59
2022-12-01T17:01:12.646Z,101881.22
2022-12-01T17:06:17.048Z,101878.50
2022-12-01T17:11:18.968Z,101878.88
2022-12-01T17:16:20.987Z,101874.31
2022-12-01T17:21:22.907Z,101886.13
2022-12-01T17:26:24.841Z,101880.69
2022-12-01T17:31:26.763Z,101883.13
2022-12-01T17:36:28.751Z,101882.47
2022-12-01T17:41:30.629Z,101875.75
2022-12-01T17:46:32.444Z,101876.16
2022-12-01T17:51:34.488Z,101881.56
2022-12-01T17:56:36.597Z,101881.84
2022-12-01T18:01:38.868Z,101878.91
2022-12-01T18:06:42.067Z,101870.06
2022-12-01T18:11:44.034Z,101873.81
2022-12-01T18:16:46.038Z,101877.91
2022-12-01T18:21:49.062Z,101887.25
2022-12-01T18:26:50.955Z,101891.88
2022-12-01T18:31:56.535Z,101884.13
2022-12-01T18:36:58.661Z,101887.03
2022-12-01T18:42:00.841Z,101880.25
2022-12-01T18:47:02.975Z,101890.84
2022-12-01T18:52:05.098Z,101901.09
2022-12-01T18:57:07.216Z,101897.78
2022-12-01T19:02:09.899Z,101910.44
2022-12-01T19:07:12.072Z,101901.19
2022-12-01T19:12:14.395Z,101896.59
2022-12-01T19:17:16.104Z,101901.09
2022-12-01T19:22:18.141Z,101904.16
2022-12-01T19:27:20.012Z,101910.03
2022-12-01T19:32:21.982Z,101905.44
2022-12-01T19:37:23.898Z,101909.41
2022-12-01T19:42:25.794Z,101910.06
2022-12-01T19:47:33.713Z,101905.69
2022-12-01T19:52:36.396Z,101910.31
2022-12-01T19:57:38.304Z,101910.56
2022-12-01T20:02:40.342Z,101905.56
2022-12-01T20:07:44.733Z,101907.78
2022-12-01T20:12:50.358Z,101911.34
2022-12-01T20:17:52.415Z,101918.47
2022-12-01T20:22:54.317Z,101928.59
2022-12-01T20:27:56.432Z,101929.88
2022-12-01T20:32:58.287Z,101930.75
2022-12-01T20:38:00.258Z,101924.59
2022-12-01T20:43:02.175Z,101931.53
2022-12-01T20:48:04.299Z,101932.28
2022-12-01T20:53:06.246Z,101926.13
2022-12-01T20:58:08.101Z,101927.03
2022-12-01T21:03:10.480Z,101932.00
2022-12-01T21:08:12.566Z,101925.59
2022-12-01T21:13:22.871Z,101934.63
2022-12-01T21:18:25.966Z,101932.72
2022-12-01T21:23:27.997Z,101927.09
2022-12-01T21:28:30.367Z,101919.16
2022-12-01T21:33:33.836Z,101923.78
2022-12-01T21:38:35.721Z,101907.66
2022-12-01T21:43:38.629Z,101912.28
2022-12-01T21:48:40.675Z,101907.66
2022-12-01T21:53:42.570Z,101907.19
2022-12-01T21:58:44.637Z,101907.56
2022-12-01T22:03:46.796Z,101910.22
2022-12-01T22:08:53.997Z,101916.22
2022-12-01T22:14:09.754Z,101910.09
2022-12-01T22:19:32.629Z,101908.28
2022-12-01T22:24:39.898Z,101910.94
2022-12-01T22:29:46.091Z,101904.69
2022-12-01T22:34:56.505Z,101900.09
2022-12-01T22:39:58.466Z,101905.97
2022-12-01T22:45:24.429Z,101905.19
2022-12-01T22:50:32.827Z,101903.00
2022-12-01T22:55:34.787Z,101899.56
2022-12-01T23:00:36.873Z,101896.09
2022-12-01T23:05:38.822Z,101894.31
2022-12-01T23:10:40.642Z,101896.13
2022-12-01T23:15:46.417Z,101891.50
2022-12-01T23:20:50.620Z,101884.38
2022-12-01T23:25:52.510Z,101879.34
2022-12-01T23:30:55.804Z,101888.66
2022-12-01T23:36:28.121Z,101891.69
2022-12-01T23:41:40.307Z,101896.78
2022-12-01T23:46:42.644Z,101898.78
2022-12-01T23:51:45.681Z,101902.31
2022-12-01T23:56:52.425Z,101903.06
